sensor_id;sensor_type;location;lat;lon;timestamp;temperature;humidity
35894;DHT22;21994;48.204;16.516;2023-01-09T00:00:25;1.80;99.90
35894;DHT22;21994;48.204;16.516;2023-01-09T00:02:51;2.00;99.90
35894;DHT22;21994;48.204;16.516;2023-01-09T00:05:17;2.00;99.90
35894;DHT22;21994;48.204;16.516;2023-01-09T00:07:43;2.10;99.90
35894;DHT22;21994;48.204;16.516;2023-01-09T00:10:10;2.20;99.90
35894;DHT22;21994;48.204;16.516;2023-01-09T00:12:36;2.30;99.90
35894;DHT22;21994;48.204;16.516;2023-01-09T00:15:02;2.40;99.90
35894;DHT22;21994;48.204;16.516;2023-01-09T00:17:28;2.40;99.90
35894;DHT22;21994;48.204;16.516;2023-01-09T00:19:54;2.50;99.90
35894;DHT22;21994;48.204;16.516;2023-01-09T00:22:20;2.50;99.90
35894;DHT22;21994;48.204;16.516;2023-01-09T00:24:45;2.50;99.90
35894;DHT22;21994;48.204;16.516;2023-01-09T00:27:11;2.50;99.90
35894;DHT22;21994;48.204;16.516;2023-01-09T00:29:39;2.50;99.90
35894;DHT22;21994;48.204;16.516;2023-01-09T00:32:10;2.50;99.90
35894;DHT22;21994;48.204;16.516;2023-01-09T00:34:36;2.50;99.90
35894;DHT22;21994;48.204;16.516;2023-01-09T00:37:02;2.40;99.90
35894;DHT22;21994;48.204;16.516;2023-01-09T00:39:28;2.50;99.90
35894;DHT22;21994;48.204;16.516;2023-01-09T00:41:54;2.50;99.90
35894;DHT22;21994;48.204;16.516;2023-01-09T00:44:22;2.50;99.90
35894;DHT22;21994;48.204;16.516;2023-01-09T00:46:55;2.50;99.90
35894;DHT22;21994;48.204;16.516;2023-01-09T00:49:24;2.50;99.90
35894;DHT22;21994;48.204;16.516;2023-01-09T00:51:50;2.50;99.90
35894;DHT22;21994;48.204;16.516;2023-01-09T00:54:17;2.50;99.90
35894;DHT22;21994;48.204;16.516;2023-01-09T00:56:43;2.60;99.90
35894;DHT22;21994;48.204;16.516;2023-01-09T00:59:10;2.60;99.90
35894;DHT22;21994;48.204;16.516;2023-01-09T01:01:35;2.50;99.90
35894;DHT22;21994;48.204;16.516;2023-01-09T01:04:01;2.60;99.90
35894;DHT22;21994;48.204;16.516;2023-01-09T01:06:47;2.50;99.90
35894;DHT22;21994;48.204;16.516;2023-01-09T01:09:32;2.50;99.90
35894;DHT22;21994;48.204;16.516;2023-01-09T01:11:57;2.60;99.90
35894;DHT22;21994;48.204;16.516;2023-01-09T01:14:23;2.60;99.90
35894;DHT22;21994;48.204;16.516;2023-01-09T01:16:49;2.70;99.90
35894;DHT22;21994;48.204;16.516;2023-01-09T01:19:15;2.60;99.90
35894;DHT22;21994;48.204;16.516;2023-01-09T01:21:40;2.70;99.90
35894;DHT22;21994;48.204;16.516;2023-01-09T01:24:06;2.70;99.90
35894;DHT22;21994;48.204;16.516;2023-01-09T01:26:32;2.70;99.90
35894;DHT22;21994;48.204;16.516;2023-01-09T01:28:58;2.70;99.90
35894;DHT22;21994;48.204;16.516;2023-01-09T01:31:23;2.60;99.90
35894;DHT22;21994;48.204;16.516;2023-01-09T01:33:49;2.60;99.90
35894;DHT22;21994;48.204;16.516;2023-01-09T01:36:17;2.70;99.90
35894;DHT22;21994;48.204;16.516;2023-01-09T01:38:43;2.70;99.90
35894;DHT22;21994;48.204;16.516;2023-01-09T01:41:09;2.70;99.90
35894;DHT22;21994;48.204;16.516;2023-01-09T01:43:51;2.80;99.90
35894;DHT22;21994;48.204;16.516;2023-01-09T01:46:18;2.70;99.90
35894;DHT22;21994;48.204;16.516;2023-01-09T01:48:44;2.70;99.90
35894;DHT22;21994;48.204;16.516;2023-01-09T01:51:11;2.80;99.90
35894;DHT22;21994;48.204;16.516;2023-01-09T01:53:40;2.70;99.90
35894;DHT22;21994;48.204;16.516;2023-01-09T01:56:09;2.80;99.90
35894;DHT22;21994;48.204;16.516;2023-01-09T01:58:50;2.90;99.90
35894;DHT22;21994;48.204;16.516;2023-01-09T02:01:18;2.90;99.90
35894;DHT22;21994;48.204;16.516;2023-01-09T02:03:45;2.90;99.90
35894;DHT22;21994;48.204;16.516;2023-01-09T02:06:11;2.80;99.90
35894;DHT22;21994;48.204;16.516;2023-01-09T02:08:37;2.90;99.90
35894;DHT22;21994;48.204;16.516;2023-01-09T02:11:04;3.00;99.90
35894;DHT22;21994;48.204;16.516;2023-01-09T02:13:30;3.00;99.90
35894;DHT22;21994;48.204;16.516;2023-01-09T02:19:05;3.10;99.90
35894;DHT22;21994;48.204;16.516;2023-01-09T02:36:20;2.90;99.90
35894;DHT22;21994;48.204;16.516;2023-01-09T02:41:36;2.80;99.90
35894;DHT22;21994;48.204;16.516;2023-01-09T02:44:20;2.80;99.90
35894;DHT22;21994;48.204;16.516;2023-01-09T02:46:47;2.80;99.90
35894;DHT22;21994;48.204;16.516;2023-01-09T02:49:13;3.00;99.90
35894;DHT22;21994;48.204;16.516;2023-01-09T02:51:46;3.00;99.90
35894;DHT22;21994;48.204;16.516;2023-01-09T03:07:42;3.00;99.90
35894;DHT22;21994;48.204;16.516;2023-01-09T03:10:21;3.10;99.90
35894;DHT22;21994;48.204;16.516;2023-01-09T03:12:52;3.10;99.90
35894;DHT22;21994;48.204;16.516;2023-01-09T03:15:23;3.10;99.90
35894;DHT22;21994;48.204;16.516;2023-01-09T03:17:51;3.00;99.90
35894;DHT22;21994;48.204;16.516;2023-01-09T03:20:20;3.10;99.90
35894;DHT22;21994;48.204;16.516;2023-01-09T03:22:57;3.10;99.90
35894;DHT22;21994;48.204;16.516;2023-01-09T03:25:26;3.10;99.90
35894;DHT22;21994;48.204;16.516;2023-01-09T03:28:02;3.20;99.90
35894;DHT22;21994;48.204;16.516;2023-01-09T03:30:30;3.30;99.90
35894;DHT22;21994;48.204;16.516;2023-01-09T03:32:57;3.30;99.90
35894;DHT22;21994;48.204;16.516;2023-01-09T03:35:23;3.20;99.90
35894;DHT22;21994;48.204;16.516;2023-01-09T03:37:50;3.20;99.90
35894;DHT22;21994;48.204;16.516;2023-01-09T03:40:16;3.20;99.90
35894;DHT22;21994;48.204;16.516;2023-01-09T03:42:43;3.20;99.90
35894;DHT22;21994;48.204;16.516;2023-01-09T03:45:09;3.10;99.90
35894;DHT22;21994;48.204;16.516;2023-01-09T03:47:34;3.20;99.90
35894;DHT22;21994;48.204;16.516;2023-01-09T03:50:00;3.10;99.90
35894;DHT22;21994;48.204;16.516;2023-01-09T03:52:26;3.10;99.90
35894;DHT22;21994;48.204;16.516;2023-01-09T03:54:52;3.10;99.90
35894;DHT22;21994;48.204;16.516;2023-01-09T03:57:18;3.10;99.90
35894;DHT22;21994;48.204;16.516;2023-01-09T03:59:43;3.10;99.90
35894;DHT22;21994;48.204;16.516;2023-01-09T04:02:09;3.20;99.90
35894;DHT22;21994;48.204;16.516;2023-01-09T04:04:35;3.40;99.90
35894;DHT22;21994;48.204;16.516;2023-01-09T04:07:00;3.50;99.90
35894;DHT22;21994;48.204;16.516;2023-01-09T04:09:26;3.60;99.90
35894;DHT22;21994;48.204;16.516;2023-01-09T04:11:52;3.70;99.90
35894;DHT22;21994;48.204;16.516;2023-01-09T04:14:18;3.60;99.90
35894;DHT22;21994;48.204;16.516;2023-01-09T04:16:43;3.60;99.90
35894;DHT22;21994;48.204;16.516;2023-01-09T04:19:09;3.50;99.90
35894;DHT22;21994;48.204;16.516;2023-01-09T04:21:35;3.50;99.90
35894;DHT22;21994;48.204;16.516;2023-01-09T04:24:01;3.50;99.90
35894;DHT22;21994;48.204;16.516;2023-01-09T04:26:27;3.50;99.90
35894;DHT22;21994;48.204;16.516;2023-01-09T04:28:53;3.40;99.90
35894;DHT22;21994;48.204;16.516;2023-01-09T04:31:19;3.30;99.90
35894;DHT22;21994;48.204;16.516;2023-01-09T04:33:44;3.30;99.90
35894;DHT22;21994;48.204;16.516;2023-01-09T04:36:11;3.50;99.90
35894;DHT22;21994;48.204;16.516;2023-01-09T04:38:37;3.60;99.90
35894;DHT22;21994;48.204;16.516;2023-01-09T04:41:03;3.60;99.90
35894;DHT22;21994;48.204;16.516;2023-01-09T04:43:29;3.70;99.90
35894;DHT22;21994;48.204;16.516;2023-01-09T04:45:54;3.70;99.90
35894;DHT22;21994;48.204;16.516;2023-01-09T04:48:20;3.60;99.90
35894;DHT22;21994;48.204;16.516;2023-01-09T04:50:46;3.50;99.90
35894;DHT22;21994;48.204;16.516;2023-01-09T04:53:12;3.50;99.90
35894;DHT22;21994;48.204;16.516;2023-01-09T04:55:37;3.60;99.90
35894;DHT22;21994;48.204;16.516;2023-01-09T04:58:05;3.60;99.90
35894;DHT22;21994;48.204;16.516;2023-01-09T05:00:31;3.70;99.90
35894;DHT22;21994;48.204;16.516;2023-01-09T05:02:57;3.80;99.90
35894;DHT22;21994;48.204;16.516;2023-01-09T05:05:23;3.80;99.90
35894;DHT22;21994;48.204;16.516;2023-01-09T05:07:49;3.80;99.90
35894;DHT22;21994;48.204;16.516;2023-01-09T05:10:14;3.80;99.90
35894;DHT22;21994;48.204;16.516;2023-01-09T05:12:40;3.80;99.90
35894;DHT22;21994;48.204;16.516;2023-01-09T05:15:06;3.90;99.90
35894;DHT22;21994;48.204;16.516;2023-01-09T05:17:33;3.90;99.90
35894;DHT22;21994;48.204;16.516;2023-01-09T05:19:59;3.90;99.90
35894;DHT22;21994;48.204;16.516;2023-01-09T05:22:25;4.00;99.90
35894;DHT22;21994;48.204;16.516;2023-01-09T05:24:51;4.40;99.90
35894;DHT22;21994;48.204;16.516;2023-01-09T05:27:17;5.10;99.90
35894;DHT22;21994;48.204;16.516;2023-01-09T05:29:42;5.70;99.90
35894;DHT22;21994;48.204;16.516;2023-01-09T05:32:08;6.20;99.90
35894;DHT22;21994;48.204;16.516;2023-01-09T05:34:34;6.60;99.90
35894;DHT22;21994;48.204;16.516;2023-01-09T05:37:00;6.80;99.90
35894;DHT22;21994;48.204;16.516;2023-01-09T05:39:25;6.90;99.90
35894;DHT22;21994;48.204;16.516;2023-01-09T05:41:51;7.30;99.90
35894;DHT22;21994;48.204;16.516;2023-01-09T05:44:17;7.40;99.90
35894;DHT22;21994;48.204;16.516;2023-01-09T05:46:43;7.70;99.90
35894;DHT22;21994;48.204;16.516;2023-01-09T05:49:08;7.80;99.90
35894;DHT22;21994;48.204;16.516;2023-01-09T05:51:34;8.10;99.90
35894;DHT22;21994;48.204;16.516;2023-01-09T05:54:00;8.20;99.90
35894;DHT22;21994;48.204;16.516;2023-01-09T05:56:27;8.30;99.90
35894;DHT22;21994;48.204;16.516;2023-01-09T05:58:54;8.30;99.90
35894;DHT22;21994;48.204;16.516;2023-01-09T06:01:20;8.40;99.90
35894;DHT22;21994;48.204;16.516;2023-01-09T06:03:45;8.50;99.90
35894;DHT22;21994;48.204;16.516;2023-01-09T06:06:11;8.60;99.90
35894;DHT22;21994;48.204;16.516;2023-01-09T06:08:37;8.50;99.90
35894;DHT22;21994;48.204;16.516;2023-01-09T06:11:03;8.70;99.90
35894;DHT22;21994;48.204;16.516;2023-01-09T06:13:29;8.70;99.90
35894;DHT22;21994;48.204;16.516;2023-01-09T06:15:54;8.70;99.90
35894;DHT22;21994;48.204;16.516;2023-01-09T06:18:20;8.70;99.90
35894;DHT22;21994;48.204;16.516;2023-01-09T06:20:46;8.70;99.90
35894;DHT22;21994;48.204;16.516;2023-01-09T06:23:12;8.80;99.90
35894;DHT22;21994;48.204;16.516;2023-01-09T06:25:37;8.80;99.90
35894;DHT22;21994;48.204;16.516;2023-01-09T06:28:03;8.80;99.90
35894;DHT22;21994;48.204;16.516;2023-01-09T06:30:29;8.80;99.90
35894;DHT22;21994;48.204;16.516;2023-01-09T06:32:55;8.90;99.90
35894;DHT22;21994;48.204;16.516;2023-01-09T06:35:20;8.90;99.90
35894;DHT22;21994;48.204;16.516;2023-01-09T06:37:46;8.90;99.90
35894;DHT22;21994;48.204;16.516;2023-01-09T06:40:12;9.00;99.90
35894;DHT22;21994;48.204;16.516;2023-01-09T06:42:41;8.90;99.90
35894;DHT22;21994;48.204;16.516;2023-01-09T06:45:10;9.00;99.90
35894;DHT22;21994;48.204;16.516;2023-01-09T06:47:38;9.10;99.90
35894;DHT22;21994;48.204;16.516;2023-01-09T06:50:04;9.00;99.90
35894;DHT22;21994;48.204;16.516;2023-01-09T06:52:31;9.00;99.90
35894;DHT22;21994;48.204;16.516;2023-01-09T06:54:56;9.10;99.90
35894;DHT22;21994;48.204;16.516;2023-01-09T06:57:22;9.10;99.90
35894;DHT22;21994;48.204;16.516;2023-01-09T06:59:48;9.10;99.90
35894;DHT22;21994;48.204;16.516;2023-01-09T07:02:16;9.10;99.90
35894;DHT22;21994;48.204;16.516;2023-01-09T07:04:43;9.20;99.90
35894;DHT22;21994;48.204;16.516;2023-01-09T07:07:09;9.10;99.90
35894;DHT22;21994;48.204;16.516;2023-01-09T07:09:34;9.20;99.90
35894;DHT22;21994;48.204;16.516;2023-01-09T07:12:00;9.30;99.90
35894;DHT22;21994;48.204;16.516;2023-01-09T07:14:26;9.20;99.90
35894;DHT22;21994;48.204;16.516;2023-01-09T07:16:52;9.30;99.90
35894;DHT22;21994;48.204;16.516;2023-01-09T07:19:17;9.30;99.90
35894;DHT22;21994;48.204;16.516;2023-01-09T07:21:43;9.30;99.90
35894;DHT22;21994;48.204;16.516;2023-01-09T07:24:09;9.30;99.90
35894;DHT22;21994;48.204;16.516;2023-01-09T07:26:34;9.30;99.90
35894;DHT22;21994;48.204;16.516;2023-01-09T07:29:00;9.20;99.90
35894;DHT22;21994;48.204;16.516;2023-01-09T07:31:26;9.30;99.90
35894;DHT22;21994;48.204;16.516;2023-01-09T07:33:52;9.30;99.90
35894;DHT22;21994;48.204;16.516;2023-01-09T07:36:17;9.20;99.90
35894;DHT22;21994;48.204;16.516;2023-01-09T07:38:43;9.30;99.90
35894;DHT22;21994;48.204;16.516;2023-01-09T07:41:09;9.30;99.90
35894;DHT22;21994;48.204;16.516;2023-01-09T07:43:35;9.20;99.90
35894;DHT22;21994;48.204;16.516;2023-01-09T07:46:02;9.30;99.90
35894;DHT22;21994;48.204;16.516;2023-01-09T07:48:28;9.30;99.90
35894;DHT22;21994;48.204;16.516;2023-01-09T07:50:54;9.40;99.90
35894;DHT22;21994;48.204;16.516;2023-01-09T07:53:19;9.40;99.90
35894;DHT22;21994;48.204;16.516;2023-01-09T07:55:45;9.50;99.90
35894;DHT22;21994;48.204;16.516;2023-01-09T07:58:11;9.50;99.90
35894;DHT22;21994;48.204;16.516;2023-01-09T08:00:37;9.50;99.90
35894;DHT22;21994;48.204;16.516;2023-01-09T08:03:03;9.60;99.90
35894;DHT22;21994;48.204;16.516;2023-01-09T08:05:28;9.60;99.90
35894;DHT22;21994;48.204;16.516;2023-01-09T08:07:54;9.60;99.90
35894;DHT22;21994;48.204;16.516;2023-01-09T08:10:20;9.70;99.90
35894;DHT22;21994;48.204;16.516;2023-01-09T08:12:46;9.70;99.90
35894;DHT22;21994;48.204;16.516;2023-01-09T08:15:13;9.70;99.90
35894;DHT22;21994;48.204;16.516;2023-01-09T08:17:42;9.70;99.90
35894;DHT22;21994;48.204;16.516;2023-01-09T08:20:09;9.70;99.90
35894;DHT22;21994;48.204;16.516;2023-01-09T08:22:37;9.70;99.90
35894;DHT22;21994;48.204;16.516;2023-01-09T08:25:04;9.60;99.90
35894;DHT22;21994;48.204;16.516;2023-01-09T08:27:30;9.40;99.90
35894;DHT22;21994;48.204;16.516;2023-01-09T08:29:55;9.20;99.90
35894;DHT22;21994;48.204;16.516;2023-01-09T08:32:21;8.90;99.90
35894;DHT22;21994;48.204;16.516;2023-01-09T08:34:47;8.60;99.90
35894;DHT22;21994;48.204;16.516;2023-01-09T08:37:13;8.40;99.90
35894;DHT22;21994;48.204;16.516;2023-01-09T08:39:48;8.30;99.90
35894;DHT22;21994;48.204;16.516;2023-01-09T08:42:14;8.20;99.90
35894;DHT22;21994;48.204;16.516;2023-01-09T08:44:58;8.10;99.90
35894;DHT22;21994;48.204;16.516;2023-01-09T08:47:42;8.00;99.90
35894;DHT22;21994;48.204;16.516;2023-01-09T08:50:08;7.90;99.90
35894;DHT22;21994;48.204;16.516;2023-01-09T08:52:34;7.80;99.90
35894;DHT22;21994;48.204;16.516;2023-01-09T08:55:00;7.80;99.90
35894;DHT22;21994;48.204;16.516;2023-01-09T08:57:26;7.70;99.90
35894;DHT22;21994;48.204;16.516;2023-01-09T08:59:51;7.60;99.90
35894;DHT22;21994;48.204;16.516;2023-01-09T09:02:17;7.50;99.90
35894;DHT22;21994;48.204;16.516;2023-01-09T09:04:43;7.30;99.90
35894;DHT22;21994;48.204;16.516;2023-01-09T09:07:10;7.20;99.90
35894;DHT22;21994;48.204;16.516;2023-01-09T09:09:36;7.00;99.90
35894;DHT22;21994;48.204;16.516;2023-01-09T09:12:01;6.90;99.90
35894;DHT22;21994;48.204;16.516;2023-01-09T09:14:27;6.70;99.90
35894;DHT22;21994;48.204;16.516;2023-01-09T09:17:11;6.80;99.90
35894;DHT22;21994;48.204;16.516;2023-01-09T09:19:37;6.70;99.90
35894;DHT22;21994;48.204;16.516;2023-01-09T09:22:03;6.70;99.90
35894;DHT22;21994;48.204;16.516;2023-01-09T09:24:29;6.70;99.90
35894;DHT22;21994;48.204;16.516;2023-01-09T09:26:55;6.80;99.90
35894;DHT22;21994;48.204;16.516;2023-01-09T09:29:21;6.90;99.90
35894;DHT22;21994;48.204;16.516;2023-01-09T09:31:46;6.90;99.90
35894;DHT22;21994;48.204;16.516;2023-01-09T09:34:12;6.80;99.90
35894;DHT22;21994;48.204;16.516;2023-01-09T09:36:38;6.90;99.90
35894;DHT22;21994;48.204;16.516;2023-01-09T09:39:03;6.90;99.90
35894;DHT22;21994;48.204;16.516;2023-01-09T09:41:35;7.00;99.90
35894;DHT22;21994;48.204;16.516;2023-01-09T09:55:41;7.10;99.90
35894;DHT22;21994;48.204;16.516;2023-01-09T10:01:37;7.20;99.90
35894;DHT22;21994;48.204;16.516;2023-01-09T10:04:09;7.30;99.90
35894;DHT22;21994;48.204;16.516;2023-01-09T10:06:38;7.40;99.90
35894;DHT22;21994;48.204;16.516;2023-01-09T10:09:12;7.40;99.90
35894;DHT22;21994;48.204;16.516;2023-01-09T10:14:29;7.40;99.90
35894;DHT22;21994;48.204;16.516;2023-01-09T10:29:08;7.10;99.90
35894;DHT22;21994;48.204;16.516;2023-01-09T10:37:42;7.00;99.90
35894;DHT22;21994;48.204;16.516;2023-01-09T10:42:57;7.00;99.90
35894;DHT22;21994;48.204;16.516;2023-01-09T10:48:00;6.90;99.90
35894;DHT22;21994;48.204;16.516;2023-01-09T10:50:36;6.90;99.90
35894;DHT22;21994;48.204;16.516;2023-01-09T10:53:22;6.90;99.90
35894;DHT22;21994;48.204;16.516;2023-01-09T10:55:54;6.90;99.90
35894;DHT22;21994;48.204;16.516;2023-01-09T10:58:25;7.00;99.90
35894;DHT22;21994;48.204;16.516;2023-01-09T11:00:51;7.10;99.90
35894;DHT22;21994;48.204;16.516;2023-01-09T11:03:22;7.10;99.90
35894;DHT22;21994;48.204;16.516;2023-01-09T11:05:55;7.20;99.90
35894;DHT22;21994;48.204;16.516;2023-01-09T11:08:36;7.30;99.90
35894;DHT22;21994;48.204;16.516;2023-01-09T11:11:07;7.30;99.90
35894;DHT22;21994;48.204;16.516;2023-01-09T11:13:36;7.30;99.90
35894;DHT22;21994;48.204;16.516;2023-01-09T11:18:52;7.50;99.90
35894;DHT22;21994;48.204;16.516;2023-01-09T11:21:34;7.60;99.90
35894;DHT22;21994;48.204;16.516;2023-01-09T11:24:26;7.60;99.90
35894;DHT22;21994;48.204;16.516;2023-01-09T11:27:14;7.60;99.90
35894;DHT22;21994;48.204;16.516;2023-01-09T11:30:20;7.70;99.90
35894;DHT22;21994;48.204;16.516;2023-01-09T11:32:57;7.70;99.90
35894;DHT22;21994;48.204;16.516;2023-01-09T11:35:29;7.90;99.90
35894;DHT22;21994;48.204;16.516;2023-01-09T11:38:14;7.90;99.90
35894;DHT22;21994;48.204;16.516;2023-01-09T11:40:53;7.90;99.90
35894;DHT22;21994;48.204;16.516;2023-01-09T11:46:03;8.10;99.90
35894;DHT22;21994;48.204;16.516;2023-01-09T11:48:40;8.00;99.90
35894;DHT22;21994;48.204;16.516;2023-01-09T11:51:21;8.10;99.90
35894;DHT22;21994;48.204;16.516;2023-01-09T11:56:37;8.10;99.90
35894;DHT22;21994;48.204;16.516;2023-01-09T11:59:18;8.10;99.90
35894;DHT22;21994;48.204;16.516;2023-01-09T12:01:50;8.10;99.90
35894;DHT22;21994;48.204;16.516;2023-01-09T12:04:24;8.10;99.90
35894;DHT22;21994;48.204;16.516;2023-01-09T12:13:30;8.20;99.90
35894;DHT22;21994;48.204;16.516;2023-01-09T12:25:33;8.30;99.90
35894;DHT22;21994;48.204;16.516;2023-01-09T12:31:06;8.30;99.90
35894;DHT22;21994;48.204;16.516;2023-01-09T12:33:48;8.40;99.90
35894;DHT22;21994;48.204;16.516;2023-01-09T12:39:56;8.40;99.90
35894;DHT22;21994;48.204;16.516;2023-01-09T12:43:01;8.40;99.90
35894;DHT22;21994;48.204;16.516;2023-01-09T12:46:22;8.50;99.90
35894;DHT22;21994;48.204;16.516;2023-01-09T12:52:10;8.50;99.90
35894;DHT22;21994;48.204;16.516;2023-01-09T12:54:43;8.50;99.90
35894;DHT22;21994;48.204;16.516;2023-01-09T12:57:32;8.50;99.90
35894;DHT22;21994;48.204;16.516;2023-01-09T13:00:20;8.50;99.90
35894;DHT22;21994;48.204;16.516;2023-01-09T13:05:48;8.60;99.90
35894;DHT22;21994;48.204;16.516;2023-01-09T13:08:25;8.60;99.90
35894;DHT22;21994;48.204;16.516;2023-01-09T13:13:57;8.50;99.90
35894;DHT22;21994;48.204;16.516;2023-01-09T13:16:31;8.60;99.90
35894;DHT22;21994;48.204;16.516;2023-01-09T13:19:11;8.50;99.90
35894;DHT22;21994;48.204;16.516;2023-01-09T13:21:41;8.50;99.90
35894;DHT22;21994;48.204;16.516;2023-01-09T13:27:10;8.60;99.90
35894;DHT22;21994;48.204;16.516;2023-01-09T13:29:42;8.60;99.90
35894;DHT22;21994;48.204;16.516;2023-01-09T13:32:48;8.40;99.90
35894;DHT22;21994;48.204;16.516;2023-01-09T13:35:21;8.50;99.90
35894;DHT22;21994;48.204;16.516;2023-01-09T13:37:50;8.50;99.90
35894;DHT22;21994;48.204;16.516;2023-01-09T13:43:04;8.50;99.90
35894;DHT22;21994;48.204;16.516;2023-01-09T13:45:33;8.50;99.90
35894;DHT22;21994;48.204;16.516;2023-01-09T13:50:40;8.40;99.90
35894;DHT22;21994;48.204;16.516;2023-01-09T14:01:05;8.60;99.90
35894;DHT22;21994;48.204;16.516;2023-01-09T14:07:27;8.50;99.90
35894;DHT22;21994;48.204;16.516;2023-01-09T14:10:02;8.50;99.90
35894;DHT22;21994;48.204;16.516;2023-01-09T14:12:37;8.50;99.90
35894;DHT22;21994;48.204;16.516;2023-01-09T14:18:03;8.40;99.90
35894;DHT22;21994;48.204;16.516;2023-01-09T14:20:41;8.50;99.90
35894;DHT22;21994;48.204;16.516;2023-01-09T14:23:24;8.40;99.90
35894;DHT22;21994;48.204;16.516;2023-01-09T14:25:52;8.40;99.90
35894;DHT22;21994;48.204;16.516;2023-01-09T14:38:49;8.30;99.90
35894;DHT22;21994;48.204;16.516;2023-01-09T14:41:30;8.20;99.90
35894;DHT22;21994;48.204;16.516;2023-01-09T14:46:59;8.10;99.90
35894;DHT22;21994;48.204;16.516;2023-01-09T14:52:22;8.10;99.90
35894;DHT22;21994;48.204;16.516;2023-01-09T14:54:53;8.10;99.90
35894;DHT22;21994;48.204;16.516;2023-01-09T15:00:16;8.20;99.90
35894;DHT22;21994;48.204;16.516;2023-01-09T15:02:45;8.20;99.90
35894;DHT22;21994;48.204;16.516;2023-01-09T15:05:17;8.20;99.90
35894;DHT22;21994;48.204;16.516;2023-01-09T15:10:35;8.20;99.90
35894;DHT22;21994;48.204;16.516;2023-01-09T15:13:05;8.20;99.90
35894;DHT22;21994;48.204;16.516;2023-01-09T15:15:34;8.20;99.90
35894;DHT22;21994;48.204;16.516;2023-01-09T15:18:06;8.20;99.90
35894;DHT22;21994;48.204;16.516;2023-01-09T15:20:33;8.20;99.90
35894;DHT22;21994;48.204;16.516;2023-01-09T15:23:00;8.30;99.90
35894;DHT22;21994;48.204;16.516;2023-01-09T15:25:36;8.20;99.90
35894;DHT22;21994;48.204;16.516;2023-01-09T15:30:59;8.20;99.90
35894;DHT22;21994;48.204;16.516;2023-01-09T15:33:30;8.20;99.90
35894;DHT22;21994;48.204;16.516;2023-01-09T15:35:56;8.20;99.90
35894;DHT22;21994;48.204;16.516;2023-01-09T15:38:28;8.10;99.90
35894;DHT22;21994;48.204;16.516;2023-01-09T15:41:05;8.20;99.90
35894;DHT22;21994;48.204;16.516;2023-01-09T15:43:34;8.10;99.90
35894;DHT22;21994;48.204;16.516;2023-01-09T15:46:04;8.10;99.90
35894;DHT22;21994;48.204;16.516;2023-01-09T15:48:31;8.10;99.90
35894;DHT22;21994;48.204;16.516;2023-01-09T15:51:08;8.20;99.90
35894;DHT22;21994;48.204;16.516;2023-01-09T15:53:39;8.20;99.90
35894;DHT22;21994;48.204;16.516;2023-01-09T15:58:40;8.10;99.90
35894;DHT22;21994;48.204;16.516;2023-01-09T16:04:14;8.10;99.90
35894;DHT22;21994;48.204;16.516;2023-01-09T16:09:24;8.00;99.90
35894;DHT22;21994;48.204;16.516;2023-01-09T16:11:57;8.10;99.90
35894;DHT22;21994;48.204;16.516;2023-01-09T16:14:35;8.10;99.90
35894;DHT22;21994;48.204;16.516;2023-01-09T16:17:04;8.10;99.90
35894;DHT22;21994;48.204;16.516;2023-01-09T16:19:49;8.20;99.90
35894;DHT22;21994;48.204;16.516;2023-01-09T16:22:23;8.10;99.90
35894;DHT22;21994;48.204;16.516;2023-01-09T16:24:55;8.10;99.90
35894;DHT22;21994;48.204;16.516;2023-01-09T16:29:55;8.10;99.90
35894;DHT22;21994;48.204;16.516;2023-01-09T16:32:47;8.10;99.90
35894;DHT22;21994;48.204;16.516;2023-01-09T16:35:18;8.10;99.90
35894;DHT22;21994;48.204;16.516;2023-01-09T16:37:52;8.10;99.90
35894;DHT22;21994;48.204;16.516;2023-01-09T16:40:22;8.10;99.90
35894;DHT22;21994;48.204;16.516;2023-01-09T16:42:58;8.20;99.90
35894;DHT22;21994;48.204;16.516;2023-01-09T16:45:39;8.10;99.90
35894;DHT22;21994;48.204;16.516;2023-01-09T16:48:17;8.10;99.90
35894;DHT22;21994;48.204;16.516;2023-01-09T16:50:45;8.10;99.90
35894;DHT22;21994;48.204;16.516;2023-01-09T16:53:23;8.20;99.90
35894;DHT22;21994;48.204;16.516;2023-01-09T16:55:54;8.10;99.90
35894;DHT22;21994;48.204;16.516;2023-01-09T17:00:58;8.20;99.90
35894;DHT22;21994;48.204;16.516;2023-01-09T17:03:24;8.10;99.90
35894;DHT22;21994;48.204;16.516;2023-01-09T17:05:55;8.10;99.90
35894;DHT22;21994;48.204;16.516;2023-01-09T17:08:29;8.00;99.90
35894;DHT22;21994;48.204;16.516;2023-01-09T17:10:56;8.00;99.90
35894;DHT22;21994;48.204;16.516;2023-01-09T17:13:23;7.90;99.90
35894;DHT22;21994;48.204;16.516;2023-01-09T17:15:51;7.80;99.90
35894;DHT22;21994;48.204;16.516;2023-01-09T17:18:23;7.80;99.90
35894;DHT22;21994;48.204;16.516;2023-01-09T17:20:52;7.80;99.90
35894;DHT22;21994;48.204;16.516;2023-01-09T17:23:22;7.70;99.90
35894;DHT22;21994;48.204;16.516;2023-01-09T17:25:53;7.60;99.90
35894;DHT22;21994;48.204;16.516;2023-01-09T17:28:49;7.50;99.90
35894;DHT22;21994;48.204;16.516;2023-01-09T17:31:16;7.50;99.90
35894;DHT22;21994;48.204;16.516;2023-01-09T17:33:42;7.50;99.90
35894;DHT22;21994;48.204;16.516;2023-01-09T17:36:28;7.40;99.90
35894;DHT22;21994;48.204;16.516;2023-01-09T17:38:57;7.40;99.90
35894;DHT22;21994;48.204;16.516;2023-01-09T17:41:25;7.40;99.90
35894;DHT22;21994;48.204;16.516;2023-01-09T17:43:56;7.40;99.90
35894;DHT22;21994;48.204;16.516;2023-01-09T17:46:29;7.60;99.90
35894;DHT22;21994;48.204;16.516;2023-01-09T17:49:00;7.60;99.90
35894;DHT22;21994;48.204;16.516;2023-01-09T17:51:26;7.60;99.90
35894;DHT22;21994;48.204;16.516;2023-01-09T17:53:54;7.60;99.90
35894;DHT22;21994;48.204;16.516;2023-01-09T17:56:22;7.40;99.90
35894;DHT22;21994;48.204;16.516;2023-01-09T17:58:49;7.40;99.90
35894;DHT22;21994;48.204;16.516;2023-01-09T18:01:15;7.30;99.90
35894;DHT22;21994;48.204;16.516;2023-01-09T18:03:42;7.30;99.90
35894;DHT22;21994;48.204;16.516;2023-01-09T18:06:09;7.30;99.90
35894;DHT22;21994;48.204;16.516;2023-01-09T18:08:36;7.30;99.90
35894;DHT22;21994;48.204;16.516;2023-01-09T18:11:06;7.30;99.90
35894;DHT22;21994;48.204;16.516;2023-01-09T18:13:39;7.20;99.90
35894;DHT22;21994;48.204;16.516;2023-01-09T18:16:09;7.30;99.90
35894;DHT22;21994;48.204;16.516;2023-01-09T18:18:36;7.20;99.90
35894;DHT22;21994;48.204;16.516;2023-01-09T18:21:03;7.10;99.90
35894;DHT22;21994;48.204;16.516;2023-01-09T18:23:32;7.10;99.90
35894;DHT22;21994;48.204;16.516;2023-01-09T18:25:57;7.10;99.90
35894;DHT22;21994;48.204;16.516;2023-01-09T18:28:23;7.10;99.90
35894;DHT22;21994;48.204;16.516;2023-01-09T18:30:51;7.20;99.90
35894;DHT22;21994;48.204;16.516;2023-01-09T18:33:23;7.30;99.90
35894;DHT22;21994;48.204;16.516;2023-01-09T18:35:49;7.30;99.90
35894;DHT22;21994;48.204;16.516;2023-01-09T18:38:14;7.20;99.90
35894;DHT22;21994;48.204;16.516;2023-01-09T18:40:41;7.50;99.90